createdAt,value
2018-08-11T00:02:06.904Z,12.70
2018-08-11T00:04:35.446Z,12.70
2018-08-11T00:07:04.098Z,12.70
2018-08-11T00:09:32.700Z,12.80
2018-08-11T00:12:01.305Z,12.80
2018-08-11T00:14:29.913Z,12.80
2018-08-11T00:16:58.527Z,12.80
2018-08-11T00:19:27.064Z,12.80
2018-08-11T00:21:58.509Z,12.70
2018-08-11T00:24:27.046Z,12.60
2018-08-11T00:26:55.568Z,12.60
2018-08-11T00:29:24.158Z,12.50
2018-08-11T00:31:52.786Z,12.50
2018-08-11T00:34:21.391Z,12.40
2018-08-11T00:36:49.926Z,12.40
2018-08-11T00:39:18.494Z,12.30
2018-08-11T00:41:47.155Z,12.20
2018-08-11T00:44:15.774Z,12.20
2018-08-11T00:46:44.378Z,12.10
2018-08-11T00:49:12.977Z,12.10
2018-08-11T00:51:41.739Z,12.10
2018-08-11T00:54:10.337Z,12.00
2018-08-11T00:56:38.904Z,12.00
2018-08-11T00:59:07.524Z,12.00
2018-08-11T01:01:36.183Z,12.10
2018-08-11T01:04:04.798Z,12.10
2018-08-11T01:06:33.333Z,12.00
2018-08-11T01:09:01.923Z,12.00
2018-08-11T01:11:30.545Z,12.00
2018-08-11T01:13:59.132Z,12.00
2018-08-11T01:16:27.644Z,12.00
2018-08-11T01:18:56.185Z,11.90
2018-08-11T01:21:24.761Z,11.90
2018-08-11T01:23:53.288Z,11.90
2018-08-11T01:26:21.804Z,11.90
2018-08-11T01:28:50.350Z,11.90
2018-08-11T01:31:18.919Z,11.90
2018-08-11T01:33:47.473Z,11.90
2018-08-11T01:36:15.996Z,11.90
2018-08-11T01:38:44.568Z,11.90
2018-08-11T01:41:13.116Z,11.90
2018-08-11T01:43:41.672Z,11.90
2018-08-11T01:46:10.208Z,11.80
2018-08-11T01:48:38.770Z,11.70
2018-08-11T01:51:08.055Z,11.60
2018-08-11T01:53:36.605Z,11.60
2018-08-11T01:56:05.176Z,11.60
2018-08-11T01:58:33.753Z,11.60
2018-08-11T02:01:02.310Z,11.60
2018-08-11T02:03:30.817Z,11.70
2018-08-11T02:05:59.404Z,11.70
2018-08-11T02:08:27.948Z,11.70
2018-08-11T02:10:56.511Z,11.60
2018-08-11T02:13:25.100Z,11.60
2018-08-11T02:15:53.589Z,11.60
2018-08-11T02:18:22.145Z,11.60
2018-08-11T02:20:50.652Z,11.60
2018-08-11T02:23:19.213Z,11.60
2018-08-11T02:25:47.793Z,11.60
2018-08-11T02:28:16.346Z,11.60
2018-08-11T02:30:44.840Z,11.60
2018-08-11T02:33:13.404Z,11.60
2018-08-11T02:35:41.978Z,11.60
2018-08-11T02:38:10.599Z,11.60
2018-08-11T02:40:39.158Z,11.70
2018-08-11T02:43:07.738Z,11.70
2018-08-11T02:45:36.305Z,11.70
2018-08-11T02:48:05.108Z,11.80
2018-08-11T02:50:33.662Z,11.80
2018-08-11T02:53:02.253Z,11.90
2018-08-11T02:55:31.446Z,11.80
2018-08-11T02:57:59.978Z,11.90
2018-08-11T03:00:28.537Z,11.90
2018-08-11T03:05:31.902Z,12.00
2018-08-11T03:08:00.462Z,12.00
2018-08-11T03:10:29.029Z,12.00
2018-08-11T03:12:57.557Z,12.00
2018-08-11T03:15:26.123Z,11.90
2018-08-11T03:17:54.653Z,11.90
2018-08-11T03:20:23.166Z,11.80
2018-08-11T03:22:51.723Z,11.80
2018-08-11T03:25:20.266Z,11.80
2018-08-11T03:27:48.814Z,11.80
2018-08-11T03:30:17.390Z,11.80
2018-08-11T03:32:45.917Z,11.80
2018-08-11T03:35:14.397Z,11.80
2018-08-11T03:37:42.916Z,11.80
2018-08-11T03:40:11.791Z,11.80
2018-08-11T03:42:41.070Z,11.80
2018-08-11T03:45:09.702Z,11.70
2018-08-11T03:47:38.253Z,11.70
2018-08-11T03:50:07.453Z,11.70
2018-08-11T03:52:35.980Z,11.80
2018-08-11T03:55:04.760Z,11.80
2018-08-11T03:57:33.325Z,11.80
2018-08-11T04:00:01.907Z,11.80
2018-08-11T04:02:30.583Z,11.80
2018-08-11T04:04:59.164Z,11.80
2018-08-11T04:07:27.721Z,11.80
2018-08-11T04:09:56.267Z,11.90
2018-08-11T04:12:24.822Z,11.90
2018-08-11T04:14:53.325Z,11.90
2018-08-11T04:17:26.089Z,11.90
2018-08-11T04:19:54.650Z,11.80
2018-08-11T04:22:23.205Z,11.80
2018-08-11T04:24:51.752Z,11.70
2018-08-11T04:27:20.313Z,11.70
2018-08-11T04:29:48.854Z,11.70
2018-08-11T04:32:17.383Z,11.70
2018-08-11T04:34:45.926Z,11.60
2018-08-11T04:37:14.400Z,11.60
2018-08-11T04:39:42.920Z,11.60
2018-08-11T04:42:11.418Z,11.70
2018-08-11T04:44:39.941Z,11.70
2018-08-11T04:47:08.490Z,11.70
2018-08-11T04:49:37.976Z,11.70
2018-08-11T04:52:06.581Z,11.70
2018-08-11T04:54:35.127Z,11.70
2018-08-11T04:57:03.686Z,11.70
2018-08-11T04:59:32.256Z,11.70
2018-08-11T05:02:00.802Z,11.70
2018-08-11T05:04:29.345Z,11.80
2018-08-11T05:06:57.881Z,11.90
2018-08-11T05:09:26.412Z,11.90
2018-08-11T05:11:54.959Z,11.90
2018-08-11T05:14:23.464Z,12.00
2018-08-11T05:16:52.033Z,12.00
2018-08-11T05:19:20.549Z,12.20
2018-08-11T05:21:49.077Z,12.40
2018-08-11T05:24:17.633Z,12.40
2018-08-11T05:26:46.195Z,12.50
2018-08-11T05:29:14.693Z,12.50
2018-08-11T05:31:43.237Z,12.40
2018-08-11T05:34:11.784Z,12.40
2018-08-11T05:36:40.391Z,12.30
2018-08-11T05:39:11.753Z,12.20
2018-08-11T05:41:40.320Z,12.10
2018-08-11T05:44:08.809Z,12.10
2018-08-11T05:46:37.858Z,12.00
2018-08-11T05:49:06.505Z,12.00
2018-08-11T05:51:35.119Z,12.00
2018-08-11T05:54:03.707Z,12.10
2018-08-11T05:56:32.261Z,12.10
2018-08-11T05:59:00.857Z,12.20
2018-08-11T06:01:29.390Z,12.20
2018-08-11T06:03:57.920Z,12.20
2018-08-11T06:06:26.672Z,12.30
2018-08-11T06:08:55.392Z,12.30
2018-08-11T06:11:23.935Z,12.40
2018-08-11T06:13:52.429Z,12.40
2018-08-11T06:16:20.977Z,12.50
2018-08-11T06:18:49.504Z,12.60
2018-08-11T06:21:18.021Z,12.70
2018-08-11T06:23:46.566Z,12.70
2018-08-11T06:26:15.224Z,12.80
2018-08-11T06:28:43.745Z,12.90
2018-08-11T06:31:12.288Z,12.90
2018-08-11T06:33:40.847Z,13.10
2018-08-11T06:36:09.368Z,13.20
2018-08-11T06:38:37.938Z,13.20
2018-08-11T06:41:06.565Z,13.30
2018-08-11T06:43:35.109Z,13.40
2018-08-11T06:46:03.727Z,13.50
2018-08-11T06:48:32.271Z,13.60
2018-08-11T06:51:00.801Z,13.80
2018-08-11T06:53:29.536Z,13.90
2018-08-11T06:55:58.124Z,13.90
2018-08-11T06:58:26.681Z,14.00
2018-08-11T07:00:55.238Z,14.20
2018-08-11T07:03:23.926Z,14.30
2018-08-11T07:05:52.637Z,14.50
2018-08-11T07:08:21.141Z,14.80
2018-08-11T07:10:49.670Z,15.00
2018-08-11T07:13:18.160Z,15.30
2018-08-11T07:15:46.740Z,15.40
2018-08-11T07:18:15.249Z,15.50
2018-08-11T07:20:43.774Z,15.50
2018-08-11T07:23:12.397Z,15.40
2018-08-11T07:25:40.920Z,15.40
2018-08-11T07:28:09.533Z,15.20
2018-08-11T07:30:38.090Z,15.00
2018-08-11T07:33:07.121Z,14.90
2018-08-11T07:35:35.660Z,14.80
2018-08-11T07:38:04.261Z,14.70
2018-08-11T07:40:32.840Z,14.40
2018-08-11T07:43:01.483Z,14.20
2018-08-11T07:45:29.992Z,14.00
2018-08-11T07:47:58.538Z,13.90
2018-08-11T07:50:27.149Z,13.80
2018-08-11T07:52:55.873Z,13.80
2018-08-11T07:55:24.476Z,13.80
2018-08-11T07:57:52.969Z,13.80
2018-08-11T08:00:21.529Z,13.90
2018-08-11T08:02:50.109Z,13.90
2018-08-11T08:05:18.613Z,14.00
2018-08-11T08:07:47.196Z,14.30
2018-08-11T08:10:15.693Z,14.60
2018-08-11T08:12:44.214Z,14.80
2018-08-11T08:15:12.841Z,15.10
2018-08-11T08:17:41.633Z,15.50
2018-08-11T08:20:10.203Z,15.80
2018-08-11T08:22:38.749Z,15.90
2018-08-11T08:25:07.600Z,15.90
2018-08-11T08:27:36.134Z,16.00
2018-08-11T08:30:07.364Z,15.90
2018-08-11T08:32:35.888Z,16.00
2018-08-11T08:35:04.781Z,16.30
2018-08-11T08:37:33.310Z,16.70
2018-08-11T08:40:01.853Z,16.70
2018-08-11T08:42:30.385Z,16.40
2018-08-11T08:44:58.961Z,15.80
2018-08-11T08:47:27.786Z,15.40
2018-08-11T08:49:56.280Z,15.00
2018-08-11T08:52:24.825Z,14.90
2018-08-11T08:54:53.364Z,14.80
2018-08-11T08:57:21.911Z,15.00
2018-08-11T08:59:50.491Z,15.40
2018-08-11T09:02:19.073Z,15.80
2018-08-11T09:04:47.620Z,16.20
2018-08-11T09:07:16.204Z,16.50
2018-08-11T09:09:44.814Z,16.70
2018-08-11T09:12:13.412Z,16.60
2018-08-11T09:14:41.968Z,16.30
2018-08-11T09:17:10.515Z,16.00
2018-08-11T09:19:39.046Z,15.90
2018-08-11T09:22:07.653Z,16.00
2018-08-11T09:24:36.367Z,16.50
2018-08-11T09:27:04.946Z,16.70
2018-08-11T09:29:33.497Z,16.70
2018-08-11T09:32:02.060Z,16.80
2018-08-11T09:34:30.602Z,17.00
2018-08-11T09:36:59.107Z,17.10
2018-08-11T09:39:27.642Z,17.10
2018-08-11T09:41:56.218Z,17.10
2018-08-11T09:44:24.770Z,17.30
2018-08-11T09:46:53.327Z,17.50
2018-08-11T09:49:21.873Z,17.60
2018-08-11T09:51:50.373Z,17.70
2018-08-11T09:54:18.938Z,17.90
2018-08-11T09:56:47.470Z,18.00
2018-08-11T09:59:15.990Z,18.10
2018-08-11T10:01:45.936Z,18.30
2018-08-11T10:04:14.937Z,18.40
2018-08-11T10:06:43.676Z,18.30
2018-08-11T10:09:13.096Z,18.00
2018-08-11T10:11:41.660Z,17.70
2018-08-11T10:14:10.163Z,17.50
2018-08-11T10:16:41.688Z,17.40
2018-08-11T10:19:12.842Z,17.40
2018-08-11T10:21:41.370Z,17.60
2018-08-11T10:24:09.884Z,17.90
2018-08-11T10:26:38.410Z,18.10
2018-08-11T10:29:06.922Z,18.30
2018-08-11T10:31:35.469Z,18.50
2018-08-11T10:34:04.244Z,18.70
2018-08-11T10:36:32.775Z,19.10
2018-08-11T10:39:01.270Z,19.30
2018-08-11T10:41:29.863Z,19.10
2018-08-11T10:43:58.351Z,16.80
2018-08-11T10:46:26.981Z,14.50
2018-08-11T10:48:55.511Z,13.30
2018-08-11T10:51:24.105Z,12.80
2018-08-11T10:53:52.825Z,12.70
2018-08-11T10:56:21.365Z,12.80
2018-08-11T10:58:49.872Z,13.20
2018-08-11T11:01:18.509Z,13.60
2018-08-11T11:03:47.021Z,14.00
2018-08-11T11:06:15.572Z,14.30
2018-08-11T11:08:44.398Z,14.70
2018-08-11T11:11:13.162Z,15.00
2018-08-11T11:13:42.469Z,15.30
2018-08-11T11:16:10.986Z,15.60
2018-08-11T11:18:39.512Z,16.00
2018-08-11T11:21:08.004Z,16.00
2018-08-11T11:23:36.675Z,16.00
2018-08-11T11:26:05.226Z,16.00
2018-08-11T11:28:33.765Z,16.00
2018-08-11T11:31:02.312Z,16.00
2018-08-11T11:33:30.996Z,16.10
2018-08-11T11:35:59.485Z,16.20
2018-08-11T11:38:28.053Z,16.10
2018-08-11T11:40:56.598Z,15.90
2018-08-11T11:43:25.157Z,15.80
2018-08-11T11:45:53.653Z,15.60
2018-08-11T11:48:22.170Z,15.40
2018-08-11T11:50:50.693Z,15.40
2018-08-11T11:53:19.219Z,15.50
2018-08-11T11:55:47.764Z,15.70
2018-08-11T11:58:16.293Z,15.90
2018-08-11T12:00:44.864Z,15.90
2018-08-11T12:03:13.442Z,15.90
2018-08-11T12:05:42.000Z,15.80
2018-08-11T12:08:10.497Z,15.70
2018-08-11T12:10:39.029Z,15.60
2018-08-11T12:13:07.613Z,15.50
2018-08-11T12:15:36.333Z,15.30
2018-08-11T12:18:05.340Z,15.20
2018-08-11T12:20:33.911Z,15.30
2018-08-11T12:23:02.465Z,15.40
2018-08-11T12:25:31.064Z,15.70
2018-08-11T12:28:00.054Z,15.90
2018-08-11T12:30:28.622Z,16.00
2018-08-11T12:32:57.214Z,16.10
2018-08-11T12:35:25.809Z,16.00
2018-08-11T12:37:55.187Z,16.10
2018-08-11T12:40:25.950Z,16.40
2018-08-11T12:42:54.594Z,16.80
2018-08-11T12:45:23.213Z,17.20
2018-08-11T12:47:53.339Z,17.10
2018-08-11T12:50:21.888Z,16.80
2018-08-11T12:52:50.429Z,16.60
2018-08-11T12:55:18.924Z,16.30
2018-08-11T12:57:47.508Z,16.30
2018-08-11T13:00:18.253Z,16.30
2018-08-11T13:02:49.030Z,16.40
2018-08-11T13:05:17.602Z,16.90
2018-08-11T13:07:48.715Z,17.30
2018-08-11T13:10:19.755Z,17.60
2018-08-11T13:12:48.356Z,17.80
2018-08-11T13:15:16.897Z,18.00
2018-08-11T13:17:48.385Z,18.60
2018-08-11T13:20:20.821Z,18.90
2018-08-11T13:22:49.382Z,19.10
2018-08-11T13:25:17.939Z,19.20
2018-08-11T13:27:46.476Z,19.30
2018-08-11T13:30:15.036Z,19.10
2018-08-11T13:32:43.569Z,19.20
2018-08-11T13:35:12.143Z,19.30
2018-08-11T13:37:40.652Z,19.20
2018-08-11T13:40:09.226Z,19.10
2018-08-11T13:42:37.766Z,18.90
2018-08-11T13:45:06.332Z,18.50
2018-08-11T13:47:34.875Z,18.30
2018-08-11T13:50:03.519Z,18.20
2018-08-11T13:52:32.038Z,18.30
2018-08-11T13:55:00.596Z,18.40
2018-08-11T13:57:30.875Z,18.50
2018-08-11T13:59:59.417Z,18.40
2018-08-11T14:02:27.910Z,18.30
2018-08-11T14:04:56.477Z,17.90
2018-08-11T14:07:25.073Z,17.70
2018-08-11T14:09:53.572Z,17.50
2018-08-11T14:12:22.446Z,17.50
2018-08-11T14:14:51.087Z,17.50
2018-08-11T14:17:19.621Z,17.50
2018-08-11T14:19:50.320Z,17.60
2018-08-11T14:22:18.885Z,17.80
2018-08-11T14:24:47.421Z,17.90
2018-08-11T14:27:18.252Z,17.90
2018-08-11T14:29:46.849Z,18.10
2018-08-11T14:32:15.386Z,18.10
2018-08-11T14:34:43.987Z,18.30
2018-08-11T14:37:15.223Z,18.30
2018-08-11T14:39:43.863Z,18.30
2018-08-11T14:42:12.421Z,18.10
2018-08-11T14:44:40.967Z,18.20
2018-08-11T14:47:09.497Z,18.40
2018-08-11T14:49:38.051Z,18.90
2018-08-11T14:52:06.735Z,19.30
2018-08-11T14:54:35.294Z,19.50
2018-08-11T14:57:03.877Z,19.60
2018-08-11T14:59:32.460Z,19.90
2018-08-11T15:02:00.952Z,20.10
2018-08-11T15:04:29.534Z,20.40
2018-08-11T15:06:58.085Z,20.30
2018-08-11T15:09:26.708Z,20.60
2018-08-11T15:11:56.595Z,20.90
2018-08-11T15:14:25.202Z,21.20
2018-08-11T15:16:53.761Z,21.10
2018-08-11T15:19:22.352Z,20.70
2018-08-11T15:21:50.945Z,20.40
2018-08-11T15:24:19.788Z,20.20
2018-08-11T15:26:48.311Z,20.10
2018-08-11T15:29:16.921Z,19.90
2018-08-11T15:31:45.484Z,19.60
2018-08-11T15:34:14.004Z,19.90
2018-08-11T15:36:42.579Z,20.30
2018-08-11T15:39:12.729Z,20.60
2018-08-11T15:41:41.383Z,21.00
2018-08-11T15:44:09.917Z,20.90
2018-08-11T15:46:38.417Z,20.80
2018-08-11T15:49:06.992Z,20.60
2018-08-11T15:51:35.489Z,20.60
2018-08-11T15:54:04.044Z,20.40
2018-08-11T15:56:32.579Z,20.50
2018-08-11T15:59:01.091Z,20.70
2018-08-11T16:01:29.649Z,20.70
2018-08-11T16:03:58.217Z,20.30
2018-08-11T16:06:26.792Z,20.10
2018-08-11T16:08:55.296Z,19.90
2018-08-11T16:11:23.922Z,19.70
2018-08-11T16:13:52.480Z,19.60
2018-08-11T16:16:25.130Z,19.30
2018-08-11T16:18:58.227Z,19.10
2018-08-11T16:21:26.736Z,18.80
2018-08-11T16:23:55.306Z,18.70
2018-08-11T16:26:23.837Z,18.60
2018-08-11T16:28:52.723Z,18.60
2018-08-11T16:31:21.324Z,18.70
2018-08-11T16:33:49.825Z,18.70
2018-08-11T16:36:18.409Z,18.70
2018-08-11T16:38:46.910Z,18.80
2018-08-11T16:41:15.430Z,18.70
2018-08-11T16:43:43.965Z,18.60
2018-08-11T16:46:12.461Z,18.60
2018-08-11T16:48:41.084Z,18.70
2018-08-11T16:51:09.650Z,18.70
2018-08-11T16:53:38.209Z,18.70
2018-08-11T16:56:06.807Z,18.90
2018-08-11T16:58:35.379Z,19.00
2018-08-11T17:01:03.984Z,19.00
2018-08-11T17:03:32.568Z,18.90
2018-08-11T17:06:01.114Z,18.90
2018-08-11T17:08:29.651Z,18.80
2018-08-11T17:10:58.154Z,18.70
2018-08-11T17:13:26.736Z,18.70
2018-08-11T17:15:55.216Z,18.60
2018-08-11T17:18:23.712Z,18.50
2018-08-11T17:20:52.320Z,18.40
2018-08-11T17:23:20.803Z,18.30
2018-08-11T17:25:49.327Z,18.30
2018-08-11T17:28:20.943Z,18.60
2018-08-11T17:30:52.470Z,19.00
2018-08-11T17:33:23.758Z,19.40
2018-08-11T17:36:02.216Z,19.90
2018-08-11T17:38:30.825Z,20.10
2018-08-11T17:40:59.376Z,20.50
2018-08-11T17:43:31.095Z,20.90
2018-08-11T17:46:01.326Z,21.00
2018-08-11T17:48:33.144Z,21.00
2018-08-11T17:51:01.669Z,20.90
2018-08-11T17:53:30.184Z,20.90
2018-08-11T17:55:58.722Z,20.90
2018-08-11T17:58:27.325Z,20.70
2018-08-11T18:00:55.848Z,20.60
2018-08-11T18:03:24.383Z,20.50
2018-08-11T18:05:52.916Z,20.60
2018-08-11T18:08:21.465Z,20.50
2018-08-11T18:10:50.000Z,20.40
2018-08-11T18:13:18.502Z,20.40
2018-08-11T18:15:47.048Z,20.40
2018-08-11T18:18:15.585Z,20.30
2018-08-11T18:20:44.076Z,20.10
2018-08-11T18:23:12.625Z,20.00
2018-08-11T18:25:41.191Z,19.90
2018-08-11T18:28:09.678Z,19.80
2018-08-11T18:30:38.219Z,19.50
2018-08-11T18:33:07.075Z,19.00
2018-08-11T18:35:35.627Z,18.50
2018-08-11T18:38:04.200Z,18.10
2018-08-11T18:40:32.739Z,17.60
2018-08-11T18:43:01.215Z,17.40
2018-08-11T18:45:29.874Z,17.10
2018-08-11T18:47:58.411Z,16.80
2018-08-11T18:50:26.939Z,16.70
2018-08-11T18:52:55.541Z,16.50
2018-08-11T18:55:24.090Z,16.40
2018-08-11T18:57:52.764Z,16.30
2018-08-11T19:00:21.581Z,16.20
2018-08-11T19:02:50.116Z,16.10
2018-08-11T19:05:18.635Z,16.00
2018-08-11T19:07:47.175Z,16.00
2018-08-11T19:10:15.760Z,15.90
2018-08-11T19:12:44.371Z,15.80
2018-08-11T19:15:14.124Z,15.70
2018-08-11T19:17:42.662Z,15.70
2018-08-11T19:20:12.551Z,15.60
2018-08-11T19:22:41.136Z,15.60
2018-08-11T19:25:10.841Z,15.50
2018-08-11T19:27:39.419Z,15.40
2018-08-11T19:30:09.421Z,15.30
2018-08-11T19:32:38.528Z,15.20
2018-08-11T19:35:07.137Z,15.10
2018-08-11T19:37:36.095Z,15.00
2018-08-11T19:40:06.092Z,14.90
2018-08-11T19:42:34.589Z,14.80
2018-08-11T19:45:03.194Z,14.70
2018-08-11T19:47:31.709Z,14.70
2018-08-11T19:50:00.230Z,14.60
2018-08-11T19:52:28.789Z,14.50
2018-08-11T19:54:57.320Z,14.50
2018-08-11T19:57:25.823Z,14.50
2018-08-11T19:59:54.408Z,14.40
2018-08-11T20:02:22.970Z,14.40
2018-08-11T20:04:51.529Z,14.30
2018-08-11T20:07:20.158Z,14.30
2018-08-11T20:09:49.264Z,14.20
2018-08-11T20:12:17.812Z,14.10
2018-08-11T20:14:46.343Z,14.00
2018-08-11T20:17:14.860Z,14.00
2018-08-11T20:19:43.417Z,14.00
2018-08-11T20:22:14.336Z,13.90
2018-08-11T20:24:42.860Z,13.90
2018-08-11T20:27:11.622Z,13.80
2018-08-11T20:29:41.081Z,13.70
2018-08-11T20:32:10.996Z,13.70
2018-08-11T20:34:40.093Z,13.70
2018-08-11T20:37:09.368Z,13.70
2018-08-11T20:39:37.902Z,13.70
2018-08-11T20:42:06.660Z,13.70
2018-08-11T20:44:35.525Z,13.60
2018-08-11T20:47:04.125Z,13.60
2018-08-11T20:49:32.849Z,13.50
2018-08-11T20:52:01.353Z,13.50
2018-08-11T20:54:29.906Z,13.40
2018-08-11T20:56:58.401Z,13.40
2018-08-11T20:59:29.627Z,13.30
2018-08-11T21:01:59.410Z,13.20
2018-08-11T21:04:30.728Z,13.20
2018-08-11T21:07:00.358Z,13.10
2018-08-11T21:09:29.095Z,13.00
2018-08-11T21:11:58.862Z,12.90
2018-08-11T21:14:28.211Z,12.80
2018-08-11T21:16:57.672Z,12.70
2018-08-11T21:19:30.876Z,12.60
2018-08-11T21:22:03.252Z,12.40
2018-08-11T21:24:32.552Z,12.30
2018-08-11T21:27:01.380Z,12.20
2018-08-11T21:29:30.682Z,12.00
2018-08-11T21:32:00.565Z,12.00
2018-08-11T21:34:30.392Z,11.90
2018-08-11T21:36:59.094Z,11.80
2018-08-11T21:39:28.294Z,11.70
2018-08-11T21:41:57.793Z,11.60
2018-08-11T21:44:27.779Z,11.60
2018-08-11T21:46:57.871Z,11.50
2018-08-11T21:49:26.916Z,11.50
2018-08-11T21:51:56.886Z,11.50
2018-08-11T21:54:26.412Z,11.50
2018-08-11T21:56:54.977Z,11.50
2018-08-11T21:59:23.473Z,11.50
2018-08-11T22:01:52.756Z,11.50
2018-08-11T22:04:21.380Z,11.50
2018-08-11T22:06:50.654Z,11.50
2018-08-11T22:09:19.683Z,11.40
2018-08-11T22:11:48.913Z,11.40
2018-08-11T22:14:17.603Z,11.30
2018-08-11T22:16:46.510Z,11.30
2018-08-11T22:19:15.333Z,11.30
2018-08-11T22:21:44.148Z,11.20
2018-08-11T22:24:12.691Z,11.20
2018-08-11T22:26:41.449Z,11.10
2018-08-11T22:29:10.051Z,11.10
2018-08-11T22:31:39.459Z,11.00
2018-08-11T22:34:08.047Z,11.00
2018-08-11T22:36:36.807Z,11.00
2018-08-11T22:39:07.775Z,10.90
2018-08-11T22:41:36.553Z,10.90
2018-08-11T22:44:06.493Z,10.90
2018-08-11T22:46:35.096Z,10.90
2018-08-11T22:49:04.773Z,10.90
2018-08-11T22:51:33.364Z,10.90
2018-08-11T22:54:02.620Z,10.90
2018-08-11T22:56:31.223Z,10.90
2018-08-11T22:58:59.708Z,10.90
2018-08-11T23:01:28.333Z,10.90
2018-08-11T23:03:56.845Z,10.90
2018-08-11T23:06:25.378Z,10.90
2018-08-11T23:08:53.937Z,11.00
2018-08-11T23:11:22.468Z,11.00
2018-08-11T23:13:52.640Z,11.00
2018-08-11T23:16:21.265Z,11.10
2018-08-11T23:18:50.028Z,11.10
2018-08-11T23:21:18.553Z,11.20
2018-08-11T23:23:47.818Z,11.20
2018-08-11T23:26:16.364Z,11.20
2018-08-11T23:28:44.997Z,11.30
2018-08-11T23:31:13.537Z,11.40
2018-08-11T23:33:42.088Z,11.40
2018-08-11T23:36:10.622Z,11.40
2018-08-11T23:38:39.164Z,11.30
2018-08-11T23:41:07.740Z,11.30
2018-08-11T23:43:36.292Z,11.20
2018-08-11T23:46:04.845Z,11.10
2018-08-11T23:48:33.407Z,11.10
2018-08-11T23:51:02.051Z,11.10
2018-08-11T23:53:30.567Z,11.00
2018-08-11T23:55:59.107Z,10.90
2018-08-11T23:58:27.726Z,10.90
